Missoula, MT

4:48 PM MDT on June 03, 2015 (GMT -0600)
Missoula International | | Change Station
CLOSE
Current Station
Airport
Location: Missoula,
Elevation: 3189 ft
Nearby Weather Stations

Elev 3189 ft 46.92 °N, 114.09 °W | Updated 55 minutes ago

Mostly Cloudy
Mostly Cloudy
66 °F
Feels Like 66 °F
N
12
Wind Variable Wind from WNW

Today
High -- | Low -- °F
--% Chance of Precip.
Yesterday
High -- | Low -- °F
Precip. -- in
5:44 AM 9:24 PM
Full, 98% visible
Pressure 29.92 in
Visibility 10.0 miles
Clouds Few 5500 ft
Scattered Clouds 7500 ft
Mostly Cloudy 9000 ft
Dew Point 42 °F
Humidity 42%
Rainfall 0.00 in
Snow Depth Not available.
UV 5 out of 12
Pollen 5.10 out of 12
Air Quality Not available.
Flu Activity Sporadic
METAR KMSO 032153Z 30010KT 10SM FEW055 SCT075 BKN090 19/06 A2994 RMK AO2 RAE05 SLP131 P0000 T01890056

More Conditions Fewer Conditions

Pressure 29.92 in
Visibility 10.0 miles
Clouds Few 5500 ft
Scattered Clouds 7500 ft
Mostly Cloudy 9000 ft
Dew Point 42 °F
Humidity 42%
Rainfall 0.00 in
Snow Depth Not available.
UV 5 out of 12
Pollen 5.10 out of 12
Air Quality Not available.
Flu Activity Sporadic
METAR KMSO 032153Z 30010KT 10SM FEW055 SCT075 BKN090 19/06 A2994 RMK AO2 RAE05 SLP131 P0000 T01890056

More Conditions Fewer Conditions

10-Day Weather Forecast

×

Almanac

Astronomy

Jun. 03, 2015 Rise Set
Actual Time
Civil Twilight
Nautical Twilight
Astronomical Twilight
Moon
Length of Visible Light
Length of Day
Tomorrow will be .
, % of the Moon is Illuminated

Today's Extremes

State Highs State Lows

Community

WunderPhotos

Upload Photos

1,826,295 photos uploaded!

WunderBlogs® & News

Nearby

Air Quality

  Air Quality AQ Index Pollutant
Not available.

Snow Depth

Station Depth Elevation

Earthquake Activity

City Distance Mag. Time & Date
Minimum magnitude displayed is 2.5.

Coastal Water Temperatures

Place Temperature

Stations

Nearby Weather Stations

Station Location Temp. Windchill Dew Point Humidity Wind Precip. Elev Updated Type